sensor_id;sensor_type;location;lat;lon;timestamp;pressure;altitude;pressure_sealevel;temperature;humidity
48424;BME280;34232;42.502;26.014;2023-03-11T00:00:48;98391.16;;;13.01;78.31
48424;BME280;34232;42.502;26.014;2023-03-11T00:03:14;98391.25;;;12.93;78.61
48424;BME280;34232;42.502;26.014;2023-03-11T00:05:40;98387.16;;;12.90;78.96
48424;BME280;34232;42.502;26.014;2023-03-11T00:08:08;98385.41;;;12.83;78.91
48424;BME280;34232;42.502;26.014;2023-03-11T00:10:35;98376.88;;;12.81;79.38
48424;BME280;34232;42.502;26.014;2023-03-11T00:13:00;98370.84;;;12.87;79.54
48424;BME280;34232;42.502;26.014;2023-03-11T00:15:27;98358.94;;;12.91;79.07
48424;BME280;34232;42.502;26.014;2023-03-11T00:17:52;98353.94;;;12.96;78.56
48424;BME280;34232;42.502;26.014;2023-03-11T00:20:19;98353.53;;;12.99;78.32
48424;BME280;34232;42.502;26.014;2023-03-11T00:22:45;98349.72;;;13.02;77.72
48424;BME280;34232;42.502;26.014;2023-03-11T00:25:11;98340.53;;;12.98;76.21
48424;BME280;34232;42.502;26.014;2023-03-11T00:27:36;98330.22;;;12.88;75.32
48424;BME280;34232;42.502;26.014;2023-03-11T00:30:02;98325.44;;;12.77;75.18
48424;BME280;34232;42.502;26.014;2023-03-11T00:32:27;98323.88;;;12.68;75.67
48424;BME280;34232;42.502;26.014;2023-03-11T00:34:52;98325.03;;;12.50;76.76
48424;BME280;34232;42.502;26.014;2023-03-11T00:37:18;98319.66;;;12.29;78.35
48424;BME280;34232;42.502;26.014;2023-03-11T00:39:43;98308.47;;;12.27;78.71
48424;BME280;34232;42.502;26.014;2023-03-11T00:42:08;98307.00;;;12.24;79.82
48424;BME280;34232;42.502;26.014;2023-03-11T00:44:33;98302.91;;;12.22;80.88
48424;BME280;34232;42.502;26.014;2023-03-11T00:46:59;98296.91;;;12.28;80.98
48424;BME280;34232;42.502;26.014;2023-03-11T00:49:24;98295.19;;;12.35;82.82
48424;BME280;34232;42.502;26.014;2023-03-11T00:51:49;98290.53;;;12.37;85.07
48424;BME280;34232;42.502;26.014;2023-03-11T00:54:14;98289.53;;;12.38;90.33
48424;BME280;34232;42.502;26.014;2023-03-11T00:56:40;98285.84;;;12.47;96.23
48424;BME280;34232;42.502;26.014;2023-03-11T00:59:05;98290.53;;;12.67;96.34
48424;BME280;34232;42.502;26.014;2023-03-11T01:01:31;98286.34;;;12.87;96.56
48424;BME280;34232;42.502;26.014;2023-03-11T01:03:56;98282.03;;;13.01;95.00
48424;BME280;34232;42.502;26.014;2023-03-11T01:06:21;98280.13;;;13.09;95.41
48424;BME280;34232;42.502;26.014;2023-03-11T01:08:46;98271.03;;;13.33;93.81
48424;BME280;34232;42.502;26.014;2023-03-11T01:11:12;98273.13;;;13.38;88.23
48424;BME280;34232;42.502;26.014;2023-03-11T01:13:37;98262.44;;;13.24;81.75
48424;BME280;34232;42.502;26.014;2023-03-11T01:16:02;98255.41;;;13.17;80.78
48424;BME280;34232;42.502;26.014;2023-03-11T01:18:28;98258.63;;;13.12;80.50
48424;BME280;34232;42.502;26.014;2023-03-11T01:20:53;98262.63;;;13.08;79.83
48424;BME280;34232;42.502;26.014;2023-03-11T01:23:19;98255.25;;;13.04;79.04
48424;BME280;34232;42.502;26.014;2023-03-11T01:25:47;98249.16;;;13.03;79.42
48424;BME280;34232;42.502;26.014;2023-03-11T01:28:13;98245.72;;;12.88;78.50
48424;BME280;34232;42.502;26.014;2023-03-11T01:30:39;98245.88;;;12.65;79.54
48424;BME280;34232;42.502;26.014;2023-03-11T01:33:05;98242.13;;;12.59;80.30
48424;BME280;34232;42.502;26.014;2023-03-11T01:35:31;98239.50;;;12.45;81.49
48424;BME280;34232;42.502;26.014;2023-03-11T01:37:56;98233.94;;;12.54;82.34
48424;BME280;34232;42.502;26.014;2023-03-11T01:40:24;98239.78;;;12.65;82.27
48424;BME280;34232;42.502;26.014;2023-03-11T01:42:50;98226.00;;;12.69;84.80
48424;BME280;34232;42.502;26.014;2023-03-11T01:47:59;98227.72;;;12.77;85.76
48424;BME280;34232;42.502;26.014;2023-03-11T01:50:24;98228.38;;;12.79;87.80
48424;BME280;34232;42.502;26.014;2023-03-11T01:52:51;98225.13;;;12.98;87.17
48424;BME280;34232;42.502;26.014;2023-03-11T01:55:17;98215.91;;;13.09;86.38
48424;BME280;34232;42.502;26.014;2023-03-11T01:57:43;98210.31;;;13.18;85.74
48424;BME280;34232;42.502;26.014;2023-03-11T02:00:10;98209.22;;;13.27;85.52
48424;BME280;34232;42.502;26.014;2023-03-11T02:02:44;98205.97;;;13.32;86.70
48424;BME280;34232;42.502;26.014;2023-03-11T02:05:12;98201.03;;;13.44;86.86
48424;BME280;34232;42.502;26.014;2023-03-11T02:07:38;98196.97;;;13.48;86.81
48424;BME280;34232;42.502;26.014;2023-03-11T02:10:04;98186.72;;;13.38;85.22
48424;BME280;34232;42.502;26.014;2023-03-11T02:12:32;98179.81;;;13.37;86.79
48424;BME280;34232;42.502;26.014;2023-03-11T02:14:58;98175.59;;;13.43;87.25
48424;BME280;34232;42.502;26.014;2023-03-11T02:17:24;98178.09;;;13.51;88.97
48424;BME280;34232;42.502;26.014;2023-03-11T02:22:15;98182.72;;;13.70;89.26
48424;BME280;34232;42.502;26.014;2023-03-11T02:24:45;98191.13;;;13.80;88.73
48424;BME280;34232;42.502;26.014;2023-03-11T02:27:14;98185.69;;;13.88;87.70
48424;BME280;34232;42.502;26.014;2023-03-11T02:29:40;98183.72;;;13.97;87.76
48424;BME280;34232;42.502;26.014;2023-03-11T02:32:07;98191.06;;;14.01;88.55
48424;BME280;34232;42.502;26.014;2023-03-11T02:34:33;98182.56;;;14.06;88.84
48424;BME280;34232;42.502;26.014;2023-03-11T02:36:59;98180.09;;;14.05;88.11
48424;BME280;34232;42.502;26.014;2023-03-11T02:39:32;98176.06;;;14.09;87.20
48424;BME280;34232;42.502;26.014;2023-03-11T02:41:58;98175.81;;;14.04;87.07
48424;BME280;34232;42.502;26.014;2023-03-11T02:44:24;98175.25;;;14.15;87.14
48424;BME280;34232;42.502;26.014;2023-03-11T02:46:49;98171.22;;;14.19;87.38
48424;BME280;34232;42.502;26.014;2023-03-11T02:49:15;98169.13;;;14.08;87.08
48424;BME280;34232;42.502;26.014;2023-03-11T02:51:40;98165.94;;;14.19;86.71
48424;BME280;34232;42.502;26.014;2023-03-11T02:54:05;98150.91;;;14.26;88.07
48424;BME280;34232;42.502;26.014;2023-03-11T02:56:31;98156.03;;;14.27;87.34
48424;BME280;34232;42.502;26.014;2023-03-11T02:58:56;98161.69;;;14.24;87.34
48424;BME280;34232;42.502;26.014;2023-03-11T03:01:22;98161.50;;;14.26;86.67
48424;BME280;34232;42.502;26.014;2023-03-11T03:03:47;98155.41;;;14.25;86.61
48424;BME280;34232;42.502;26.014;2023-03-11T03:06:13;98163.13;;;14.27;86.20
48424;BME280;34232;42.502;26.014;2023-03-11T03:08:39;98161.31;;;14.27;85.85
48424;BME280;34232;42.502;26.014;2023-03-11T03:11:04;98143.16;;;14.24;86.34
48424;BME280;34232;42.502;26.014;2023-03-11T03:13:30;98142.78;;;14.27;86.11
48424;BME280;34232;42.502;26.014;2023-03-11T03:18:49;98137.06;;;14.24;87.06
48424;BME280;34232;42.502;26.014;2023-03-11T03:21:16;98147.78;;;14.09;88.45
48424;BME280;34232;42.502;26.014;2023-03-11T03:23:41;98147.59;;;14.17;90.54
48424;BME280;34232;42.502;26.014;2023-03-11T03:26:06;98152.91;;;14.17;90.34
48424;BME280;34232;42.502;26.014;2023-03-11T03:28:32;98148.47;;;14.24;91.96
48424;BME280;34232;42.502;26.014;2023-03-11T03:31:04;98149.59;;;14.09;90.88
48424;BME280;34232;42.502;26.014;2023-03-11T03:33:30;98151.94;;;14.25;90.96
48424;BME280;34232;42.502;26.014;2023-03-11T03:35:55;98147.66;;;14.30;90.44
48424;BME280;34232;42.502;26.014;2023-03-11T03:38:20;98145.69;;;14.39;89.71
48424;BME280;34232;42.502;26.014;2023-03-11T03:40:46;98139.22;;;14.48;89.49
48424;BME280;34232;42.502;26.014;2023-03-11T03:43:11;98135.16;;;14.52;89.55
48424;BME280;34232;42.502;26.014;2023-03-11T03:45:37;98133.56;;;14.58;89.04
48424;BME280;34232;42.502;26.014;2023-03-11T03:48:02;98142.53;;;14.63;88.84
48424;BME280;34232;42.502;26.014;2023-03-11T03:50:27;98138.84;;;14.64;88.50
48424;BME280;34232;42.502;26.014;2023-03-11T03:52:53;98135.59;;;14.62;88.46
48424;BME280;34232;42.502;26.014;2023-03-11T03:55:18;98127.66;;;14.62;88.37
48424;BME280;34232;42.502;26.014;2023-03-11T03:57:43;98128.25;;;14.64;88.07
48424;BME280;34232;42.502;26.014;2023-03-11T04:00:09;98128.66;;;14.61;87.99
48424;BME280;34232;42.502;26.014;2023-03-11T04:02:34;98129.00;;;14.45;88.37
48424;BME280;34232;42.502;26.014;2023-03-11T04:05:00;98127.41;;;14.44;89.97
48424;BME280;34232;42.502;26.014;2023-03-11T04:07:25;98127.81;;;14.48;89.96
48424;BME280;34232;42.502;26.014;2023-03-11T04:09:50;98124.56;;;14.52;90.34
48424;BME280;34232;42.502;26.014;2023-03-11T04:12:16;98124.78;;;14.57;89.97
48424;BME280;34232;42.502;26.014;2023-03-11T04:14:41;98119.69;;;14.62;90.83
48424;BME280;34232;42.502;26.014;2023-03-11T04:17:07;98121.94;;;14.65;90.38
48424;BME280;34232;42.502;26.014;2023-03-11T04:19:34;98109.13;;;14.69;90.25
48424;BME280;34232;42.502;26.014;2023-03-11T04:21:59;98109.97;;;14.76;89.85
48424;BME280;34232;42.502;26.014;2023-03-11T04:24:26;98108.72;;;14.79;89.63
48424;BME280;34232;42.502;26.014;2023-03-11T04:26:51;98107.94;;;14.85;88.97
48424;BME280;34232;42.502;26.014;2023-03-11T04:29:17;98093.69;;;14.86;88.52
48424;BME280;34232;42.502;26.014;2023-03-11T04:31:42;98095.72;;;14.84;88.04
48424;BME280;34232;42.502;26.014;2023-03-11T04:34:07;98085.91;;;14.78;87.39
48424;BME280;34232;42.502;26.014;2023-03-11T04:36:33;98086.34;;;14.75;87.10
48424;BME280;34232;42.502;26.014;2023-03-11T04:38:58;98092.03;;;14.72;87.30
48424;BME280;34232;42.502;26.014;2023-03-11T04:41:23;98087.94;;;14.69;87.68
48424;BME280;34232;42.502;26.014;2023-03-11T04:43:48;98089.34;;;14.65;87.61
48424;BME280;34232;42.502;26.014;2023-03-11T04:46:14;98092.81;;;14.65;87.50
48424;BME280;34232;42.502;26.014;2023-03-11T04:48:39;98092.81;;;14.65;86.20
48424;BME280;34232;42.502;26.014;2023-03-11T04:51:05;98091.00;;;14.66;85.98
48424;BME280;34232;42.502;26.014;2023-03-11T04:53:30;98093.03;;;14.64;85.34
48424;BME280;34232;42.502;26.014;2023-03-11T04:55:55;98094.47;;;14.60;85.70
48424;BME280;34232;42.502;26.014;2023-03-11T04:58:20;98093.03;;;14.57;85.80
48424;BME280;34232;42.502;26.014;2023-03-11T05:00:46;98093.59;;;14.46;85.86
48424;BME280;34232;42.502;26.014;2023-03-11T05:03:11;98105.41;;;14.44;86.52
48424;BME280;34232;42.502;26.014;2023-03-11T05:05:36;98102.34;;;14.40;87.21
48424;BME280;34232;42.502;26.014;2023-03-11T05:08:02;98096.03;;;14.41;87.58
48424;BME280;34232;42.502;26.014;2023-03-11T05:10:27;98101.31;;;14.41;88.09
48424;BME280;34232;42.502;26.014;2023-03-11T05:12:52;98104.59;;;14.43;88.13
48424;BME280;34232;42.502;26.014;2023-03-11T05:15:18;98102.75;;;14.44;88.27
48424;BME280;34232;42.502;26.014;2023-03-11T05:17:44;98107.44;;;14.48;89.32
48424;BME280;34232;42.502;26.014;2023-03-11T05:20:09;98107.03;;;14.51;89.89
48424;BME280;34232;42.502;26.014;2023-03-11T05:22:35;98109.53;;;14.59;89.79
48424;BME280;34232;42.502;26.014;2023-03-11T05:25:00;98100.56;;;14.67;89.37
48424;BME280;34232;42.502;26.014;2023-03-11T05:27:26;98097.09;;;14.60;89.49
48424;BME280;34232;42.502;26.014;2023-03-11T05:29:51;98104.06;;;14.74;89.39
48424;BME280;34232;42.502;26.014;2023-03-11T05:32:16;98116.50;;;14.87;88.69
48424;BME280;34232;42.502;26.014;2023-03-11T05:34:43;98110.22;;;15.01;87.84
48424;BME280;34232;42.502;26.014;2023-03-11T05:37:08;98112.25;;;15.05;88.18
48424;BME280;34232;42.502;26.014;2023-03-11T05:39:33;98112.06;;;15.20;87.96
48424;BME280;34232;42.502;26.014;2023-03-11T05:41:59;98109.81;;;15.30;86.98
48424;BME280;34232;42.502;26.014;2023-03-11T05:44:24;98109.41;;;15.40;86.63
48424;BME280;34232;42.502;26.014;2023-03-11T05:46:50;98108.97;;;15.43;86.38
48424;BME280;34232;42.502;26.014;2023-03-11T05:49:15;98114.50;;;15.55;85.45
48424;BME280;34232;42.502;26.014;2023-03-11T05:51:40;98114.94;;;15.58;85.34
48424;BME280;34232;42.502;26.014;2023-03-11T05:54:05;98119.41;;;15.64;84.83
48424;BME280;34232;42.502;26.014;2023-03-11T05:56:39;98121.84;;;15.66;84.52
48424;BME280;34232;42.502;26.014;2023-03-11T05:59:04;98112.88;;;15.60;84.86
48424;BME280;34232;42.502;26.014;2023-03-11T06:01:29;98117.16;;;15.68;85.09
48424;BME280;34232;42.502;26.014;2023-03-11T06:03:55;98117.97;;;15.62;84.96
48424;BME280;34232;42.502;26.014;2023-03-11T06:06:20;98112.47;;;15.63;84.46
48424;BME280;34232;42.502;26.014;2023-03-11T06:08:45;98111.03;;;15.61;84.56
48424;BME280;34232;42.502;26.014;2023-03-11T06:11:13;98111.47;;;15.58;84.58
48424;BME280;34232;42.502;26.014;2023-03-11T06:13:39;98109.19;;;15.55;84.99
48424;BME280;34232;42.502;26.014;2023-03-11T06:16:04;98103.47;;;15.51;85.38
48424;BME280;34232;42.502;26.014;2023-03-11T06:18:30;98101.22;;;15.48;85.34
48424;BME280;34232;42.502;26.014;2023-03-11T06:20:59;98099.41;;;15.49;84.95
48424;BME280;34232;42.502;26.014;2023-03-11T06:23:25;98099.41;;;15.49;85.30
48424;BME280;34232;42.502;26.014;2023-03-11T06:25:57;98104.09;;;15.33;85.80
48424;BME280;34232;42.502;26.014;2023-03-11T06:28:23;98100.22;;;15.29;86.56
48424;BME280;34232;42.502;26.014;2023-03-11T06:30:48;98102.44;;;15.46;85.82
48424;BME280;34232;42.502;26.014;2023-03-11T06:33:14;98098.59;;;15.42;85.73
48424;BME280;34232;42.502;26.014;2023-03-11T06:35:39;98094.28;;;15.47;85.79
48424;BME280;34232;42.502;26.014;2023-03-11T06:38:05;98084.72;;;15.39;85.96
48424;BME280;34232;42.502;26.014;2023-03-11T06:40:30;98084.72;;;15.59;85.42
48424;BME280;34232;42.502;26.014;2023-03-11T06:42:56;98075.94;;;15.46;85.68
48424;BME280;34232;42.502;26.014;2023-03-11T06:45:21;98065.75;;;15.36;86.21
48424;BME280;34232;42.502;26.014;2023-03-11T06:47:46;98072.47;;;15.52;85.85
48424;BME280;34232;42.502;26.014;2023-03-11T06:50:12;98061.88;;;15.65;85.62
48424;BME280;34232;42.502;26.014;2023-03-11T06:52:37;98065.53;;;15.70;84.80
48424;BME280;34232;42.502;26.014;2023-03-11T06:55:02;98061.25;;;15.43;86.34
48424;BME280;34232;42.502;26.014;2023-03-11T06:57:28;98050.63;;;15.63;85.75
48424;BME280;34232;42.502;26.014;2023-03-11T06:59:55;98035.94;;;15.67;85.16
48424;BME280;34232;42.502;26.014;2023-03-11T07:02:20;98030.38;;;15.82;84.93
48424;BME280;34232;42.502;26.014;2023-03-11T07:04:47;98030.72;;;15.98;84.20
48424;BME280;34232;42.502;26.014;2023-03-11T07:07:13;98016.84;;;15.96;83.93
48424;BME280;34232;42.502;26.014;2023-03-11T07:09:38;98019.91;;;16.00;82.86
48424;BME280;34232;42.502;26.014;2023-03-11T07:12:03;98016.84;;;15.96;82.96
48424;BME280;34232;42.502;26.014;2023-03-11T07:14:29;98016.09;;;15.89;83.43
48424;BME280;34232;42.502;26.014;2023-03-11T07:16:54;98018.47;;;16.04;82.65
48424;BME280;34232;42.502;26.014;2023-03-11T07:19:19;98023.91;;;16.16;83.02
48424;BME280;34232;42.502;26.014;2023-03-11T07:21:44;98014.59;;;16.00;84.15
48424;BME280;34232;42.502;26.014;2023-03-11T07:24:11;98019.13;;;16.31;82.83
48424;BME280;34232;42.502;26.014;2023-03-11T07:26:36;98012.53;;;16.40;81.50
48424;BME280;34232;42.502;26.014;2023-03-11T07:29:02;98009.16;;;16.64;80.72
48424;BME280;34232;42.502;26.014;2023-03-11T07:31:31;98008.72;;;16.61;79.77
48424;BME280;34232;42.502;26.014;2023-03-11T07:33:58;98011.94;;;16.76;79.60
48424;BME280;34232;42.502;26.014;2023-03-11T07:36:24;98011.88;;;16.83;78.82
48424;BME280;34232;42.502;26.014;2023-03-11T07:38:59;98020.34;;;16.98;78.32
48424;BME280;34232;42.502;26.014;2023-03-11T07:41:27;98017.34;;;17.12;77.75
48424;BME280;34232;42.502;26.014;2023-03-11T07:43:54;98011.53;;;17.22;77.08
48424;BME280;34232;42.502;26.014;2023-03-11T07:46:20;98004.47;;;17.34;76.30
48424;BME280;34232;42.502;26.014;2023-03-11T07:48:46;98008.47;;;17.43;76.04
48424;BME280;34232;42.502;26.014;2023-03-11T07:51:13;98016.47;;;17.62;75.00
48424;BME280;34232;42.502;26.014;2023-03-11T07:53:39;98013.47;;;17.76;74.60
48424;BME280;34232;42.502;26.014;2023-03-11T07:56:08;98010.84;;;17.88;73.13
48424;BME280;34232;42.502;26.014;2023-03-11T07:58:33;98005.91;;;17.92;71.71
48424;BME280;34232;42.502;26.014;2023-03-11T08:01:06;98020.63;;;17.94;71.38
48424;BME280;34232;42.502;26.014;2023-03-11T08:03:32;98030.09;;;17.90;70.78
48424;BME280;34232;42.502;26.014;2023-03-11T08:05:57;98022.25;;;17.95;70.49
48424;BME280;34232;42.502;26.014;2023-03-11T08:08:23;98027.50;;;18.02;70.37
48424;BME280;34232;42.502;26.014;2023-03-11T08:10:48;98029.03;;;18.09;70.02
48424;BME280;34232;42.502;26.014;2023-03-11T08:13:13;98038.50;;;18.05;70.53
48424;BME280;34232;42.502;26.014;2023-03-11T08:15:38;98030.59;;;18.17;70.56
48424;BME280;34232;42.502;26.014;2023-03-11T08:18:04;98024.44;;;18.16;71.38
48424;BME280;34232;42.502;26.014;2023-03-11T08:20:29;98021.88;;;18.40;70.88
48424;BME280;34232;42.502;26.014;2023-03-11T08:22:54;98011.59;;;18.55;70.25
48424;BME280;34232;42.502;26.014;2023-03-11T08:25:20;98015.28;;;18.72;68.35
48424;BME280;34232;42.502;26.014;2023-03-11T08:27:46;98008.09;;;18.84;67.40
48424;BME280;34232;42.502;26.014;2023-03-11T08:30:12;98006.47;;;18.83;66.78
48424;BME280;34232;42.502;26.014;2023-03-11T08:32:43;98003.72;;;18.90;66.73
48424;BME280;34232;42.502;26.014;2023-03-11T08:35:09;98011.34;;;18.75;66.38
48424;BME280;34232;42.502;26.014;2023-03-11T08:37:34;98007.06;;;18.85;65.40
48424;BME280;34232;42.502;26.014;2023-03-11T08:39:59;98013.44;;;18.84;65.29
48424;BME280;34232;42.502;26.014;2023-03-11T08:42:24;98014.38;;;18.90;65.04
48424;BME280;34232;42.502;26.014;2023-03-11T08:44:50;98012.66;;;18.96;65.55
48424;BME280;34232;42.502;26.014;2023-03-11T08:47:15;98017.28;;;18.88;66.03
48424;BME280;34232;42.502;26.014;2023-03-11T08:49:40;98015.66;;;18.87;65.34
48424;BME280;34232;42.502;26.014;2023-03-11T08:52:06;98017.84;;;18.91;64.95
48424;BME280;34232;42.502;26.014;2023-03-11T08:54:31;98014.47;;;18.83;64.00
48424;BME280;34232;42.502;26.014;2023-03-11T08:56:57;98007.53;;;18.82;63.93
48424;BME280;34232;42.502;26.014;2023-03-11T08:59:26;98005.56;;;18.78;63.78
48424;BME280;34232;42.502;26.014;2023-03-11T09:01:52;98011.56;;;18.85;63.10
48424;BME280;34232;42.502;26.014;2023-03-11T09:04:17;98007.19;;;18.79;62.72
48424;BME280;34232;42.502;26.014;2023-03-11T09:06:42;98002.88;;;18.66;63.01
48424;BME280;34232;42.502;26.014;2023-03-11T09:09:08;98001.69;;;18.62;60.96
48424;BME280;34232;42.502;26.014;2023-03-11T09:11:34;98009.81;;;18.67;60.24
48424;BME280;34232;42.502;26.014;2023-03-11T09:14:01;97996.16;;;18.75;61.13
48424;BME280;34232;42.502;26.014;2023-03-11T09:16:26;97986.56;;;18.56;60.63
48424;BME280;34232;42.502;26.014;2023-03-11T09:19:00;97980.06;;;18.52;61.79
48424;BME280;34232;42.502;26.014;2023-03-11T09:21:30;97986.56;;;18.56;61.10
48424;BME280;34232;42.502;26.014;2023-03-11T09:23:56;97974.56;;;18.35;59.82
48424;BME280;34232;42.502;26.014;2023-03-11T09:26:23;97976.03;;;18.49;60.58
48424;BME280;34232;42.502;26.014;2023-03-11T09:28:49;97970.59;;;18.56;61.17
48424;BME280;34232;42.502;26.014;2023-03-11T09:31:14;97971.94;;;18.65;58.18
48424;BME280;34232;42.502;26.014;2023-03-11T09:33:43;97962.91;;;18.66;59.83
48424;BME280;34232;42.502;26.014;2023-03-11T09:36:16;97963.81;;;18.72;58.72
48424;BME280;34232;42.502;26.014;2023-03-11T09:38:41;97963.25;;;18.81;54.65
48424;BME280;34232;42.502;26.014;2023-03-11T09:48:52;97959.06;;;19.32;47.77
48424;BME280;34232;42.502;26.014;2023-03-11T09:51:21;97965.78;;;19.46;47.34
48424;BME280;34232;42.502;26.014;2023-03-11T09:53:51;97961.84;;;19.37;46.92
48424;BME280;34232;42.502;26.014;2023-03-11T09:56:20;97966.84;;;19.34;47.42
48424;BME280;34232;42.502;26.014;2023-03-11T09:58:47;97971.63;;;19.32;47.76
48424;BME280;34232;42.502;26.014;2023-03-11T10:03:42;97953.84;;;19.26;45.94
48424;BME280;34232;42.502;26.014;2023-03-11T10:06:25;97947.97;;;19.12;46.55
48424;BME280;34232;42.502;26.014;2023-03-11T10:09:02;97943.28;;;19.19;50.21
48424;BME280;34232;42.502;26.014;2023-03-11T10:22:11;97923.56;;;19.43;44.76
48424;BME280;34232;42.502;26.014;2023-03-11T10:32:40;97914.75;;;19.43;41.12
48424;BME280;34232;42.502;26.014;2023-03-11T10:37:57;97910.66;;;19.64;41.32
48424;BME280;34232;42.502;26.014;2023-03-11T10:40:33;97907.78;;;19.53;41.84
48424;BME280;34232;42.502;26.014;2023-03-11T10:43:00;97904.53;;;19.51;40.86
48424;BME280;34232;42.502;26.014;2023-03-11T10:45:27;97909.28;;;19.61;41.23
48424;BME280;34232;42.502;26.014;2023-03-11T10:47:57;97905.78;;;19.61;40.30
48424;BME280;34232;42.502;26.014;2023-03-11T10:50:22;97906.97;;;19.53;40.67
48424;BME280;34232;42.502;26.014;2023-03-11T10:53:04;97910.09;;;19.38;41.30
48424;BME280;34232;42.502;26.014;2023-03-11T10:55:29;97914.53;;;19.21;40.79
48424;BME280;34232;42.502;26.014;2023-03-11T10:58:10;97912.56;;;19.28;41.23
48424;BME280;34232;42.502;26.014;2023-03-11T11:00:37;97911.03;;;19.32;41.79
48424;BME280;34232;42.502;26.014;2023-03-11T11:03:02;97913.25;;;19.23;41.83
48424;BME280;34232;42.502;26.014;2023-03-11T11:08:04;97910.03;;;19.10;42.92
48424;BME280;34232;42.502;26.014;2023-03-11T11:10:30;97910.63;;;19.12;42.94
48424;BME280;34232;42.502;26.014;2023-03-11T11:12:59;97900.88;;;19.06;43.48
48424;BME280;34232;42.502;26.014;2023-03-11T11:15:28;97897.75;;;19.09;42.66
48424;BME280;34232;42.502;26.014;2023-03-11T11:17:54;97897.75;;;18.97;42.53
48424;BME280;34232;42.502;26.014;2023-03-11T11:20:21;97903.09;;;18.97;41.95
48424;BME280;34232;42.502;26.014;2023-03-11T11:22:53;97901.22;;;19.09;42.13
48424;BME280;34232;42.502;26.014;2023-03-11T11:27:57;97894.81;;;19.22;41.19
48424;BME280;34232;42.502;26.014;2023-03-11T11:30:23;97888.31;;;19.30;41.27
48424;BME280;34232;42.502;26.014;2023-03-11T11:32:49;97900.25;;;19.39;41.59
48424;BME280;34232;42.502;26.014;2023-03-11T11:35:19;97889.91;;;19.42;42.59
48424;BME280;34232;42.502;26.014;2023-03-11T11:37:57;97904.28;;;19.53;43.75
48424;BME280;34232;42.502;26.014;2023-03-11T11:40:25;97890.38;;;19.39;44.92
48424;BME280;34232;42.502;26.014;2023-03-11T11:42:56;97892.25;;;19.27;45.32
48424;BME280;34232;42.502;26.014;2023-03-11T11:45:25;97893.19;;;19.21;45.69
48424;BME280;34232;42.502;26.014;2023-03-11T11:47:51;97896.69;;;19.10;45.95
48424;BME280;34232;42.502;26.014;2023-03-11T11:50:23;97893.09;;;18.69;47.80
48424;BME280;34232;42.502;26.014;2023-03-11T11:52:51;97894.84;;;18.75;48.25
48424;BME280;34232;42.502;26.014;2023-03-11T11:55:20;97897.66;;;18.27;49.55
48424;BME280;34232;42.502;26.014;2023-03-11T11:57:47;97898.88;;;18.01;51.74
48424;BME280;34232;42.502;26.014;2023-03-11T12:00:20;97899.22;;;17.75;54.47
48424;BME280;34232;42.502;26.014;2023-03-11T12:02:59;97899.38;;;17.62;58.09
48424;BME280;34232;42.502;26.014;2023-03-11T12:05:30;97913.88;;;17.47;60.32
48424;BME280;34232;42.502;26.014;2023-03-11T12:18:21;97930.69;;;17.05;67.31
48424;BME280;34232;42.502;26.014;2023-03-11T12:20:54;97929.75;;;16.74;65.58
48424;BME280;34232;42.502;26.014;2023-03-11T12:28:30;97941.13;;;16.25;67.06
48424;BME280;34232;42.502;26.014;2023-03-11T12:31:02;97941.97;;;16.26;67.26
48424;BME280;34232;42.502;26.014;2023-03-11T12:33:35;97950.38;;;16.23;69.22
48424;BME280;34232;42.502;26.014;2023-03-11T12:36:03;97954.78;;;16.35;70.26
48424;BME280;34232;42.502;26.014;2023-03-11T12:38:33;97966.22;;;16.36;71.14
48424;BME280;34232;42.502;26.014;2023-03-11T12:43:58;97990.34;;;16.28;76.54
48424;BME280;34232;42.502;26.014;2023-03-11T12:46:11;97990.53;;;16.33;77.52
48424;BME280;34232;42.502;26.014;2023-03-11T12:48:44;97999.50;;;16.38;78.93
48424;BME280;34232;42.502;26.014;2023-03-11T12:53:50;98010.63;;;16.22;75.00
48424;BME280;34232;42.502;26.014;2023-03-11T13:04:08;98019.84;;;16.51;76.64
48424;BME280;34232;42.502;26.014;2023-03-11T13:09:21;97997.81;;;16.44;78.28
48424;BME280;34232;42.502;26.014;2023-03-11T13:11:46;97980.66;;;16.40;82.16
48424;BME280;34232;42.502;26.014;2023-03-11T13:16:49;97996.28;;;16.30;81.14
48424;BME280;34232;42.502;26.014;2023-03-11T13:21:58;98013.03;;;16.24;80.12
48424;BME280;34232;42.502;26.014;2023-03-11T13:37:11;97966.28;;;16.54;84.63
48424;BME280;34232;42.502;26.014;2023-03-11T13:42:13;97960.03;;;16.73;69.34
48424;BME280;34232;42.502;26.014;2023-03-11T13:44:41;97964.91;;;16.76;74.08
48424;BME280;34232;42.502;26.014;2023-03-11T13:47:13;97961.31;;;16.89;71.13
48424;BME280;34232;42.502;26.014;2023-03-11T13:49:44;97956.84;;;17.08;71.31
48424;BME280;34232;42.502;26.014;2023-03-11T13:52:14;97960.34;;;17.27;70.19
48424;BME280;34232;42.502;26.014;2023-03-11T13:54:46;97963.09;;;17.38;68.16
48424;BME280;34232;42.502;26.014;2023-03-11T13:57:19;97964.28;;;17.42;66.21
48424;BME280;34232;42.502;26.014;2023-03-11T13:59:50;97957.41;;;17.53;65.54
48424;BME280;34232;42.502;26.014;2023-03-11T14:02:16;97966.66;;;17.51;64.77
48424;BME280;34232;42.502;26.014;2023-03-11T14:04:46;97967.38;;;17.58;64.05
48424;BME280;34232;42.502;26.014;2023-03-11T14:07:13;97965.69;;;17.63;65.21
48424;BME280;34232;42.502;26.014;2023-03-11T14:09:39;97970.94;;;17.70;68.87
48424;BME280;34232;42.502;26.014;2023-03-11T14:12:05;97975.91;;;17.66;65.09
48424;BME280;34232;42.502;26.014;2023-03-11T14:17:16;97989.72;;;17.75;67.13
48424;BME280;34232;42.502;26.014;2023-03-11T14:19:42;97978.69;;;17.71;69.67
48424;BME280;34232;42.502;26.014;2023-03-11T14:22:08;97982.88;;;17.67;68.53
48424;BME280;34232;42.502;26.014;2023-03-11T14:24:33;97973.13;;;17.55;70.27
48424;BME280;34232;42.502;26.014;2023-03-11T14:27:00;97970.63;;;17.41;68.38